Time;durP1;ratioP1;P1;durP2;ratioP2;P2;SDS_P1;SDS_P2;PMS_P1;PMS_P2;Temp;Humidity;BMP_temperature;BMP_pressure;BME280_temperature;BME280_humidity;BME280_pressure;Samples;Min_cycle;Max_cycle;Signal;HPM_P1;HPM_P2
2021/10/14 00:00:08;;;;;;;8.87;5.90;;;;;;;;;;5011102;28;20571;-83
2021/10/14 00:02:34;;;;;;;7.82;5.78;;;;;;;;;;5012975;28;20040;-83
2021/10/14 00:04:59;;;;;;;7.70;5.60;;;;;;;;;;5011137;28;20431;-82
2021/10/14 00:07:24;;;;;;;6.47;4.60;;;;;;;;;;5011864;28;20034;-81
2021/10/14 00:09:49;;;;;;;8.73;6.22;;;;;;;;;;5011106;28;20049;-82
2021/10/14 00:12:14;;;;;;;8.90;6.17;;;;;;;;;;5010466;28;20118;-82
2021/10/14 00:14:40;;;;;;;9.20;6.00;;;;;;;;;;5010068;28;20026;-82
2021/10/14 00:17:05;;;;;;;8.85;5.85;;;;;;;;;;5010789;28;20331;-81
2021/10/14 00:19:31;;;;;;;8.00;5.17;;;;;;;;;;5011621;28;20038;-82
2021/10/14 00:21:56;;;;;;;7.75;5.75;;;;;;;;;;5014076;28;20316;-81
2021/10/14 00:24:21;;;;;;;9.52;6.55;;;;;;;;;;5015270;28;20050;-81
2021/10/14 00:26:47;;;;;;;10.40;6.57;;;;;;;;;;5012923;28;20523;-82
2021/10/14 00:29:12;;;;;;;9.87;6.13;;;;;;;;;;5011432;28;20821;-83
2021/10/14 00:31:37;;;;;;;9.90;6.40;;;;;;;;;;5011224;28;20650;-82
2021/10/14 00:34:02;;;;;;;8.33;5.87;;;;;;;;;;5009526;28;20806;-82
2021/10/14 00:36:27;;;;;;;7.53;5.70;;;;;;;;;;4997583;28;20034;-84
2021/10/14 00:38:53;;;;;;;7.97;5.50;;;;;;;;;;5010150;28;20193;-83
2021/10/14 00:41:18;;;;;;;8.77;5.47;;;;;;;;;;5008423;28;20069;-81
2021/10/14 00:43:43;;;;;;;8.75;5.53;;;;;;;;;;5008679;28;20042;-82
2021/10/14 00:46:18;;;;;;;7.57;5.20;;;;;;;;;;5009802;28;20407;-82
2021/10/14 00:48:43;;;;;;;8.25;5.60;;;;;;;;;;5011194;28;20045;-82
2021/10/14 00:51:09;;;;;;;7.75;5.50;;;;;;;;;;5007912;28;20045;-81
2021/10/14 00:53:41;;;;;;;7.75;5.05;;;;;;;;;;5009691;28;20391;-83
2021/10/14 00:56:06;;;;;;;8.95;6.18;;;;;;;;;;5007244;28;20065;-83
2021/10/14 00:58:33;;;;;;;8.88;5.85;;;;;;;;;;5013026;28;20035;-82
2021/10/14 01:00:58;;;;;;;8.63;5.47;;;;;;;;;;5009603;28;20129;-82
2021/10/14 01:03:24;;;;;;;8.50;6.07;;;;;;;;;;5010735;28;20188;-81
2021/10/14 01:05:49;;;;;;;10.35;6.60;;;;;;;;;;5015297;28;20038;-81
2021/10/14 01:08:14;;;;;;;10.57;7.33;;;;;;;;;;5008191;28;20045;-82
2021/10/14 01:10:39;;;;;;;10.77;7.13;;;;;;;6.69;nan;101257.38;5012852;28;20289;-82
2021/10/14 01:13:05;;;;;;;10.00;6.65;;;;;;;;;;5016512;28;20297;-82
2021/10/14 01:15:31;;;;;;;11.27;6.78;;;;;;;;;;5010406;28;20042;-82
2021/10/14 01:17:56;;;;;;;13.43;7.77;;;;;;;;;;5019107;28;20726;-81
2021/10/14 01:20:22;;;;;;;10.95;7.50;;;;;;;;;;5012644;28;20283;-82
2021/10/14 01:22:47;;;;;;;8.80;6.90;;;;;;;;;;5010989;28;20042;-81
2021/10/14 01:25:12;;;;;;;11.60;7.45;;;;;;;;;;5012430;28;20069;-80
2021/10/14 01:27:37;;;;;;;10.13;7.00;;;;;;;;;;5013167;28;20484;-81
2021/10/14 01:30:04;;;;;;;11.70;8.35;;;;;;;;;;5012964;28;20809;-81
2021/10/14 01:32:29;;;;;;;12.27;8.60;;;;;;;;;;5017986;28;20479;-82
2021/10/14 01:34:54;;;;;;;11.47;8.23;;;;;;;;;;5010588;28;20064;-82
2021/10/14 01:37:19;;;;;;;10.83;7.73;;;;;;;;;;5012797;28;20369;-81
2021/10/14 01:39:45;;;;;;;12.30;7.55;;;;;;;;;;5011184;28;20053;-82
2021/10/14 01:42:10;;;;;;;11.97;8.27;;;;;;;;;;5011622;28;20037;-82
2021/10/14 01:44:35;;;;;;;13.40;8.87;;;;;;;;;;5010450;28;20073;-81
2021/10/14 01:47:00;;;;;;;10.73;7.23;;;;;;;;;;5012003;28;20499;-81
2021/10/14 01:49:25;;;;;;;11.27;7.50;;;;;;;;;;5012342;28;20329;-80
2021/10/14 01:51:50;;;;;;;11.03;7.63;;;;;;;;;;5011532;28;20346;-82
2021/10/14 01:54:17;;;;;;;12.07;6.87;;;;;;;;;;5010935;28;20040;-81
2021/10/14 01:56:42;;;;;;;11.15;7.45;;;;;;;;;;5012854;28;20046;-82
2021/10/14 01:59:07;;;;;;;10.50;7.80;;;;;;;;;;5012803;28;20057;-81
2021/10/14 02:01:33;;;;;;;12.38;8.23;;;;;;;;;;5011081;28;20053;-82
2021/10/14 02:03:58;;;;;;;13.98;8.25;;;;;;;;;;5011388;28;20046;-81
2021/10/14 02:06:23;;;;;;;12.00;7.97;;;;;;;;;;5011133;28;20037;-82
2021/10/14 02:08:49;;;;;;;12.77;8.88;;;;;;;;;;5012266;28;20121;-82
2021/10/14 02:11:14;;;;;;;15.17;9.13;;;;;;;;;;5011133;28;20549;-82
2021/10/14 02:13:40;;;;;;;14.43;9.67;;;;;;;;;;5010823;28;20038;-81
2021/10/14 02:16:05;;;;;;;13.18;8.90;;;;;;;;;;5011358;28;20281;-82
2021/10/14 02:18:30;;;;;;;16.40;9.38;;;;;;;;;;5011912;28;20052;-81
2021/10/14 02:20:55;;;;;;;14.25;9.30;;;;;;;;;;5011806;28;20038;-81
2021/10/14 02:23:20;;;;;;;14.45;9.40;;;;;;;;;;5013571;28;20045;-82
2021/10/14 02:25:46;;;;;;;14.82;8.73;;;;;;;;;;5011991;28;20046;-83
2021/10/14 02:28:11;;;;;;;12.57;8.40;;;;;;;;;;5010230;28;20084;-81
2021/10/14 02:30:36;;;;;;;13.05;8.98;;;;;;;;;;5010073;28;20279;-82
2021/10/14 02:33:02;;;;;;;14.77;8.13;;;;;;;;;;5018172;28;20033;-82
2021/10/14 02:35:27;;;;;;;14.68;9.23;;;;;;;;;;5017263;28;20037;-82
2021/10/14 02:37:52;;;;;;;13.90;9.00;;;;;;;;;;5012519;28;20125;-82
2021/10/14 02:40:17;;;;;;;15.33;9.77;;;;;;;;;;5011469;28;20500;-82
2021/10/14 02:42:43;;;;;;;14.80;9.03;;;;;;;;;;5014131;28;20639;-82
2021/10/14 02:45:08;;;;;;;14.47;9.50;;;;;;;;;;5013359;28;20312;-85
2021/10/14 02:47:33;;;;;;;12.63;8.30;;;;;;;;;;5014200;28;20853;-83
2021/10/14 02:49:58;;;;;;;13.75;8.73;;;;;;;;;;5013793;28;20049;-83
2021/10/14 02:52:24;;;;;;;11.87;7.27;;;;;;;;;;5016399;28;20045;-84
2021/10/14 02:54:49;;;;;;;15.32;8.18;;;;;;;;;;5024952;28;20273;-82
2021/10/14 02:57:14;;;;;;;14.97;7.87;;;;;;;;;;5022684;28;20045;-82
2021/10/14 02:59:39;;;;;;;10.50;7.17;;;;;;;;;;5028630;28;20364;-81
2021/10/14 03:02:05;;;;;;;9.95;7.00;;;;;;;;;;5027958;28;20304;-80
2021/10/14 03:04:30;;;;;;;12.37;7.47;;;;;;;;;;5028434;28;20107;-83
2021/10/14 03:06:55;;;;;;;11.87;7.13;;;;;;;;;;5029094;28;20809;-82
2021/10/14 03:09:20;;;;;;;13.32;7.38;;;;;;;;;;5016662;28;20053;-82
2021/10/14 03:11:45;;;;;;;12.20;7.67;;;;;;;;;;5011860;28;20569;-84
2021/10/14 03:14:11;;;;;;;10.98;7.22;;;;;;;6.29;nan;101359.97;5015210;28;20045;-83
2021/10/14 03:16:36;;;;;;;12.68;7.90;;;;;;;;;;5014456;28;20416;-82
2021/10/14 03:19:01;;;;;;;11.85;7.88;;;;;;;;;;5016763;28;20041;-82
2021/10/14 03:21:26;;;;;;;13.70;8.23;;;;;;;;;;5014664;28;20526;-83
2021/10/14 03:23:52;;;;;;;13.63;7.37;;;;;;;;;;5013450;28;20037;-83
2021/10/14 03:26:17;;;;;;;10.65;6.30;;;;;;;;;;5010798;28;20690;-83
2021/10/14 03:28:42;;;;;;;14.93;8.20;;;;;;;;;;5011687;28;20136;-83
2021/10/14 03:31:08;;;;;;;12.88;8.75;;;;;;;;;;5012688;28;20048;-83
2021/10/14 03:33:33;;;;;;;12.70;8.43;;;;;;;;;;5012082;28;20046;-81
2021/10/14 03:35:58;;;;;;;15.07;9.60;;;;;;;;;;5003665;28;20050;-83
2021/10/14 03:38:24;;;;;;;12.05;7.90;;;;;;;;;;5015848;28;20292;-83
2021/10/14 03:40:49;;;;;;;14.77;8.70;;;;;;;;;;5013120;28;20474;-81
2021/10/14 03:43:15;;;;;;;14.10;8.35;;;;;;;;;;5012203;28;20052;-83
2021/10/14 03:45:40;;;;;;;13.27;8.60;;;;;;;;;;5013087;28;20034;-82
2021/10/14 03:48:05;;;;;;;12.15;8.48;;;;;;;;;;5012267;28;20034;-81
2021/10/14 03:50:30;;;;;;;16.47;9.03;;;;;;;;;;5011152;28;20038;-83
2021/10/14 03:52:55;;;;;;;14.47;8.90;;;;;;;;;;5010380;28;20330;-82
2021/10/14 03:55:21;;;;;;;14.02;8.82;;;;;;;;;;5006751;28;20281;-81
2021/10/14 03:57:46;;;;;;;13.37;8.83;;;;;;;;;;5010399;28;20038;-82
2021/10/14 04:00:11;;;;;;;14.47;8.57;;;;;;;;;;5008559;28;20293;-82
2021/10/14 04:02:37;;;;;;;13.88;9.50;;;;;;;;;;5008851;28;20067;-82
2021/10/14 04:05:02;;;;;;;13.50;9.00;;;;;;;;;;5008839;28;20064;-81
2021/10/14 04:07:28;;;;;;;12.60;8.93;;;;;;;;;;5010249;28;20042;-82
2021/10/14 04:09:53;;;;;;;17.80;10.68;;;;;;;;;;5010778;28;20042;-82
2021/10/14 04:12:19;;;;;;;19.10;11.90;;;;;;;;;;5014450;28;20041;-82
2021/10/14 04:14:44;;;;;;;15.10;10.35;;;;;;;;;;5011665;28;20545;-81
2021/10/14 04:17:09;;;;;;;16.40;11.00;;;;;;;;;;5013211;28;20026;-82
2021/10/14 04:19:34;;;;;;;16.80;11.03;;;;;;;;;;5010979;28;20038;-81
2021/10/14 04:21:59;;;;;;;18.03;12.27;;;;;;;;;;5011482;28;20634;-83
2021/10/14 04:24:27;;;;;;;15.95;10.48;;;;;;;;;;5011389;28;20280;-82
2021/10/14 04:26:52;;;;;;;17.70;11.60;;;;;;;;;;5015516;28;20041;-84
2021/10/14 04:29:17;;;;;;;17.50;12.13;;;;;;;;;;5019799;28;20491;-81
2021/10/14 04:31:43;;;;;;;18.93;12.43;;;;;;;;;;5012431;28;20046;-82
2021/10/14 04:34:08;;;;;;;18.45;12.25;;;;;;;;;;5013467;28;20073;-83
2021/10/14 04:36:37;;;;;;;17.15;12.18;;;;;;;;;;5014623;28;20050;-81
2021/10/14 04:39:03;;;;;;;17.38;12.27;;;;;;;;;;5013736;28;20037;-81
2021/10/14 04:41:28;;;;;;;21.10;14.02;;;;;;;;;;5011388;28;20045;-83
2021/10/14 04:43:53;;;;;;;17.83;12.60;;;;;;;;;;5014567;28;20488;-83
2021/10/14 04:46:20;;;;;;;20.97;13.57;;;;;;;;;;5011204;28;20129;-82
2021/10/14 04:48:45;;;;;;;21.58;14.38;;;;;;;;;;5013954;28;20281;-83
2021/10/14 04:51:10;;;;;;;18.77;13.00;;;;;;;;;;5014398;28;20049;-82
2021/10/14 04:53:35;;;;;;;19.63;14.10;;;;;;;;;;5013667;28;20034;-83
2021/10/14 04:56:01;;;;;;;19.60;12.97;;;;;;;;;;5014036;28;20034;-83
2021/10/14 04:58:26;;;;;;;21.17;15.10;;;;;;;;;;5013828;28;20308;-83
2021/10/14 05:00:51;;;;;;;26.70;14.40;;;;;;;;;;5006057;28;20093;-83
2021/10/14 05:03:18;;;;;;;20.80;14.40;;;;;;;;;;5011769;28;20030;-84
2021/10/14 05:05:43;;;;;;;19.08;13.20;;;;;;;;;;5013038;28;20048;-81
2021/10/14 05:08:09;;;;;;;19.73;12.85;;;;;;;;;;5013134;28;20402;-81
2021/10/14 05:10:34;;;;;;;17.50;12.43;;;;;;;;;;5014836;28;20038;-83
2021/10/14 05:12:59;;;;;;;16.00;11.30;;;;;;;;;;5013231;28;20037;-83
2021/10/14 05:15:24;;;;;;;17.73;11.60;;;;;;;;;;5011300;28;20624;-82
2021/10/14 05:17:49;;;;;;;14.47;10.13;;;;;;;;;;5014064;28;20038;-81
2021/10/14 05:20:15;;;;;;;16.67;10.33;;;;;;;;;;5014547;28;20372;-82
2021/10/14 05:22:40;;;;;;;14.90;9.97;;;;;;;;;;5017561;28;20384;-83
2021/10/14 05:25:05;;;;;;;14.52;10.27;;;;;;;;;;5012721;28;20713;-82
2021/10/14 05:27:31;;;;;;;15.77;10.02;;;;;;;;;;5011495;28;20044;-83
2021/10/14 05:29:56;;;;;;;15.15;10.27;;;;;;;;;;5012830;28;20052;-82
2021/10/14 05:32:21;;;;;;;16.67;10.50;;;;;;;;;;5012014;28;20048;-81
2021/10/14 05:34:46;;;;;;;15.65;10.27;;;;;;;;;;5016630;28;20423;-82
2021/10/14 05:37:11;;;;;;;14.73;10.07;;;;;;;;;;5015478;28;20113;-83
2021/10/14 05:39:37;;;;;;;14.90;9.10;;;;;;;;;;5014189;28;20033;-83
2021/10/14 05:42:02;;;;;;;12.40;9.30;;;;;;;;;;5013136;28;20092;-82
2021/10/14 05:44:27;;;;;;;13.82;8.18;;;;;;;;;;5013498;28;20281;-83
2021/10/14 05:46:52;;;;;;;12.25;8.80;;;;;;;;;;5012346;28;20042;-83
2021/10/14 05:49:18;;;;;;;13.45;8.88;;;;;;;6.84;nan;101413.19;5014237;28;20053;-82
2021/10/14 05:51:43;;;;;;;14.30;8.52;;;;;;;;;;5016666;28;20038;-82
2021/10/14 05:54:08;;;;;;;13.98;8.63;;;;;;;;;;5013322;28;20033;-82
2021/10/14 05:56:34;;;;;;;15.03;8.27;;;;;;;;;;5014552;28;20565;-83
2021/10/14 05:59:00;;;;;;;13.57;8.98;;;;;;;;;;5011304;28;20046;-84
2021/10/14 06:01:25;;;;;;;13.45;8.73;;;;;;;;;;5014712;28;20038;-82
2021/10/14 06:03:50;;;;;;;14.67;9.37;;;;;;;;;;5017854;28;20172;-83
2021/10/14 06:06:15;;;;;;;12.50;8.37;;;;;;;;;;5014916;28;20330;-82
2021/10/14 06:08:41;;;;;;;14.70;8.88;;;;;;;;;;5017893;28;20041;-83
2021/10/14 06:11:06;;;;;;;12.53;8.33;;;;;;;;;;5016546;28;20064;-83
2021/10/14 06:13:31;;;;;;;12.75;8.50;;;;;;;;;;5017027;28;20304;-82
2021/10/14 06:15:56;;;;;;;14.48;8.63;;;;;;;;;;5013420;28;20038;-82
2021/10/14 06:18:22;;;;;;;14.88;8.85;;;;;;;;;;5016143;28;20080;-82
2021/10/14 06:20:48;;;;;;;13.68;9.45;;;;;;;;;;5019219;28;20030;-82
2021/10/14 06:23:13;;;;;;;13.18;8.75;;;;;;;;;;5015492;28;20410;-82
2021/10/14 06:25:39;;;;;;;14.38;8.82;;;;;;;;;;5010489;28;20038;-82
2021/10/14 06:28:05;;;;;;;19.50;9.63;;;;;;;;;;5013326;28;20038;-83
2021/10/14 06:30:40;;;;;;;16.45;9.35;;;;;;;;;;5019608;28;20500;-83
2021/10/14 06:33:14;;;;;;;21.05;9.60;;;;;;;;;;5015933;28;20052;-83
2021/10/14 06:35:39;;;;;;;14.43;9.30;;;;;;;;;;5018981;28;20407;-82
2021/10/14 06:38:06;;;;;;;18.08;9.15;;;;;;;;;;5019261;28;20034;-83
2021/10/14 06:40:31;;;;;;;14.85;9.18;;;;;;;;;;5015404;28;20045;-84
2021/10/14 06:42:57;;;;;;;14.18;9.82;;;;;;;;;;5028035;28;20037;-82
2021/10/14 06:45:22;;;;;;;14.35;9.00;;;;;;;;;;5022802;28;20061;-81
2021/10/14 06:47:51;;;;;;;14.52;9.18;;;;;;;;;;5017566;28;20038;-83
2021/10/14 06:50:17;;;;;;;14.50;9.65;;;;;;;;;;5017918;28;20064;-82
2021/10/14 06:52:43;;;;;;;14.27;8.63;;;;;;;;;;5015691;28;20508;-84
2021/10/14 06:55:08;;;;;;;13.75;8.82;;;;;;;;;;5015575;28;20034;-81
2021/10/14 06:57:33;;;;;;;14.40;8.68;;;;;;;;;;5010172;28;20489;-81
2021/10/14 06:59:59;;;;;;;14.75;9.48;;;;;;;;;;5008373;28;20064;-82
2021/10/14 07:02:24;;;;;;;14.73;9.23;;;;;;;;;;5008623;28;20057;-83
2021/10/14 07:04:49;;;;;;;15.20;9.03;;;;;;;;;;5010291;28;20277;-83
2021/10/14 07:07:14;;;;;;;13.80;9.07;;;;;;;7.56;nan;101437.06;5011976;28;20288;-82
2021/10/14 07:09:39;;;;;;;14.80;9.43;;;;;;;;;;5012969;28;20042;-82
2021/10/14 07:12:10;;;;;;;13.90;9.17;;;;;;;;;;5013280;28;20034;-82
2021/10/14 07:14:36;;;;;;;15.98;8.75;;;;;;;;;;5012753;28;20271;-82
2021/10/14 07:17:01;;;;;;;12.82;8.85;;;;;;;;;;5008981;28;20042;-83
2021/10/14 07:19:26;;;;;;;14.40;9.50;;;;;;;;;;5017176;28;20053;-83
2021/10/14 07:21:51;;;;;;;16.97;9.67;;;;;;;;;;5012493;28;20321;-82
2021/10/14 07:24:19;;;;;;;15.83;10.00;;;;;;;;;;5003207;28;20320;-83
2021/10/14 07:26:44;;;;;;;14.60;9.40;;;;;;;8.11;nan;101289.09;5008842;28;20277;-82
2021/10/14 07:29:09;;;;;;;15.70;9.82;;;;;;;;;;5010416;28;20037;-82
2021/10/14 07:31:35;;;;;;;14.50;9.37;;;;;;;;;;5010431;28;20468;-83
2021/10/14 07:34:00;;;;;;;16.85;9.82;;;;;;;;;;5008662;28;20277;-82
2021/10/14 07:36:25;;;;;;;13.45;8.93;;;;;;;;;;5007821;28;20549;-82
2021/10/14 07:38:50;;;;;;;14.80;9.57;;;;;;;;;;5006576;28;20120;-82
2021/10/14 07:41:16;;;;;;;16.37;10.37;;;;;;;;;;5010188;28;20061;-82
2021/10/14 07:43:41;;;;;;;16.03;11.37;;;;;;;;;;5007681;28;20042;-82
2021/10/14 07:46:09;;;;;;;15.47;10.63;;;;;;;;;;5010479;28;20556;-82
2021/10/14 07:48:35;;;;;;;15.73;10.07;;;;;;;;;;5008470;28;20088;-82
2021/10/14 07:51:00;;;;;;;16.08;10.52;;;;;;;;;;5012833;28;20037;-82
2021/10/14 07:53:25;;;;;;;17.92;11.65;;;;;;;;;;5008181;28;20038;-82
2021/10/14 07:55:51;;;;;;;16.60;10.55;;;;;;;;;;5008836;28;20048;-83
2021/10/14 07:58:16;;;;;;;16.05;11.02;;;;;;;;;;5009544;28;20124;-82
2021/10/14 08:00:41;;;;;;;13.87;10.60;;;;;;;;;;5008601;28;20530;-84
2021/10/14 08:03:07;;;;;;;17.17;11.25;;;;;;;;;;5005513;28;20778;-83
2021/10/14 08:05:32;;;;;;;16.50;10.80;;;;;;;8.54;nan;101595.09;5005794;28;20116;-83
2021/10/14 08:07:59;;;;;;;16.20;10.52;;;;;;;8.63;nan;101601.50;5015687;28;20037;-82
2021/10/14 08:10:24;;;;;;;15.65;10.07;;;;;;;8.67;nan;101606.41;5007370;28;20496;-84
2021/10/14 08:12:50;;;;;;;16.40;10.23;;;;;;;8.67;nan;101592.38;5012668;28;20026;-82
2021/10/14 08:15:15;;;;;;;15.98;9.40;;;;;;;8.75;nan;101592.66;5013237;28;20136;-82
2021/10/14 08:17:40;;;;;;;11.98;8.90;;;;;;;8.82;nan;101608.84;5015066;28;20052;-84
2021/10/14 08:20:07;;;;;;;15.40;9.15;;;;;;;8.93;nan;101609.75;5014468;28;20067;-84
2021/10/14 08:22:35;;;;;;;13.85;9.15;;;;;;;9.02;nan;101608.22;5007699;28;20052;-83
2021/10/14 08:25:01;;;;;;;13.30;9.02;;;;;;;9.08;nan;101602.50;5011487;28;20063;-83
2021/10/14 08:27:26;;;;;;;12.80;8.55;;;;;;;9.12;nan;101597.81;5011917;28;20597;-83
2021/10/14 08:29:51;;;;;;;11.82;8.73;;;;;;;8.98;nan;101598.00;5019558;28;20407;-82
2021/10/14 08:32:17;;;;;;;13.60;8.63;;;;;;;9.10;nan;101592.63;5020108;28;20050;-82
2021/10/14 08:34:42;;;;;;;13.55;8.65;;;;;;;9.13;nan;101588.97;5019775;28;20042;-83
2021/10/14 08:37:08;;;;;;;16.85;9.43;;;;;;;9.25;nan;101589.81;5015590;28;20048;-82
2021/10/14 08:39:33;;;;;;;12.18;8.63;;;;;;;9.15;nan;101587.03;5017246;28;20045;-83
2021/10/14 08:41:58;;;;;;;12.05;8.20;;;;;;;9.24;nan;101593.41;5004757;28;20048;-84
2021/10/14 08:44:27;;;;;;;14.18;9.15;;;;;;;9.22;nan;101590.88;5014788;28;20484;-85
2021/10/14 08:46:58;;;;;;;11.82;8.48;;;;;;;9.30;nan;101595.59;5013256;28;20399;-82
2021/10/14 08:49:24;;;;;;;12.90;8.23;;;;;;;9.42;nan;101588.53;5013675;28;20061;-82
2021/10/14 08:51:51;;;;;;;12.80;8.15;;;;;;;9.40;nan;101588.63;5009769;28;20404;-82
2021/10/14 08:54:16;;;;;;;14.90;8.70;;;;;;;9.51;nan;101591.31;5008119;28;20038;-82
2021/10/14 08:56:44;;;;;;;11.45;7.90;;;;;;;9.38;nan;101593.19;5011328;28;20045;-83
2021/10/14 08:59:12;;;;;;;11.60;7.63;;;;;;;9.46;nan;101596.09;5011677;28;20029;-83
2021/10/14 09:01:37;;;;;;;9.77;7.55;;;;;;;9.56;nan;101601.50;5007503;28;20038;-84
2021/10/14 09:04:12;;;;;;;11.65;7.15;;;;;;;9.71;nan;101594.19;5004689;28;20064;-83
2021/10/14 09:06:40;;;;;;;12.55;7.65;;;;;;;9.65;nan;101597.28;5011662;28;20072;-82
2021/10/14 09:09:06;;;;;;;12.85;8.32;;;;;;;9.66;nan;101606.91;5013492;28;20104;-82
2021/10/14 09:11:31;;;;;;;11.52;7.40;;;;;;;9.70;nan;101603.91;5010866;28;20026;-83
2021/10/14 09:14:01;;;;;;;11.98;7.78;;;;;;;9.74;nan;101601.88;5015716;28;20026;-84
2021/10/14 09:16:28;;;;;;;12.50;8.55;;;;;;;9.81;nan;101603.06;5009798;28;20026;-82
2021/10/14 09:18:55;;;;;;;10.13;7.15;;;;;;;9.74;nan;101601.88;5011439;28;20045;-83
2021/10/14 09:21:23;;;;;;;11.82;7.55;;;;;;;9.74;nan;101602.69;5010018;28;20041;-83
2021/10/14 09:23:49;;;;;;;10.95;7.97;;;;;;;9.83;nan;101608.22;5008648;28;20161;-82
2021/10/14 09:26:25;;;;;;;10.57;7.55;;;;;;;9.79;nan;101597.06;5012426;28;20037;-82
2021/10/14 09:29:06;;;;;;;12.90;7.78;;;;;;;9.86;nan;101600.91;5012303;28;20067;-84
2021/10/14 09:31:45;;;;;;;11.38;7.53;;;;;;;9.75;nan;101593.00;5009307;28;20384;-83
2021/10/14 09:34:32;;;;;;;12.35;8.18;;;;;;;9.92;nan;101589.03;5011093;28;20117;-83
2021/10/14 09:37:00;;;;;;;11.63;7.32;;;;;;;9.86;nan;101592.13;5008828;28;20045;-82
2021/10/14 09:39:26;;;;;;;13.23;8.05;;;;;;;10.00;nan;101589.25;5027021;28;20046;-84
2021/10/14 09:41:52;;;;;;;10.95;7.53;;;;;;;10.03;nan;101593.44;5012993;28;20062;-84
2021/10/14 09:44:18;;;;;;;11.57;8.23;;;;;;;10.25;nan;101589.91;5011008;28;20030;-83
2021/10/14 09:46:48;;;;;;;11.02;7.63;;;;;;;10.17;nan;101591.38;5005475;28;20129;-85
2021/10/14 09:49:26;;;;;;;11.02;7.78;;;;;;;10.26;nan;101592.44;5013352;28;20045;-84
2021/10/14 09:51:51;;;;;;;14.25;7.60;;;;;;;10.29;nan;101588.75;5011473;28;20049;-85
2021/10/14 09:54:17;;;;;;;10.60;7.47;;;;;;;10.39;nan;101584.38;5011675;28;20046;-83
2021/10/14 09:56:42;;;;;;;10.57;7.00;;;;;;;10.47;nan;101589.06;5010185;28;20358;-84
2021/10/14 09:59:07;;;;;;;11.23;7.30;;;;;;;10.48;nan;101574.88;5009695;28;20392;-85
2021/10/14 10:01:36;;;;;;;12.10;7.93;;;;;;;10.38;nan;101580.06;5013912;28;20072;-84
2021/10/14 10:04:02;;;;;;;13.98;7.90;;;;;;;10.50;nan;101584.34;5010683;28;20034;-85
2021/10/14 10:06:30;;;;;;;13.35;7.70;;;;;;;10.56;nan;101583.88;5009966;28;20041;-84
2021/10/14 10:09:01;;;;;;;12.68;7.53;;;;;;;10.61;nan;101584.31;5012946;28;20377;-83
2021/10/14 10:11:27;;;;;;;13.10;8.02;;;;;;;10.64;nan;101580.59;5011418;28;20121;-84
2021/10/14 10:13:55;;;;;;;9.85;6.50;;;;;;;10.67;nan;101582.97;5013378;28;20034;-82
2021/10/14 10:16:25;;;;;;;10.95;7.32;;;;;;;10.69;nan;101583.69;5010085;28;22871;-84
2021/10/14 10:18:52;;;;;;;12.15;7.38;;;;;;;10.76;nan;101582.22;5015631;28;20046;-84
2021/10/14 10:21:29;;;;;;;9.40;6.55;;;;;;;10.89;nan;101578.53;5010900;28;20065;-83
2021/10/14 10:24:03;;;;;;;11.00;7.55;;;;;;;10.88;nan;101569.78;5003745;28;20137;-83
2021/10/14 10:29:00;;;;;;;9.13;6.68;;;;;;;11.05;nan;101571.00;5013000;28;20042;-83
2021/10/14 10:31:59;;;;;;;11.15;6.40;;;;;;;11.21;nan;101570.56;5008725;28;20499;-85
2021/10/14 10:37:27;;;;;;;12.23;7.32;;;;;;;11.20;nan;101567.06;5011231;28;20049;-84
2021/10/14 10:39:56;;;;;;;15.88;7.65;;;;;;;11.36;nan;101563.09;5011650;28;20060;-83
2021/10/14 10:42:59;;;;;;;9.93;7.10;;;;;;;11.34;nan;101567.69;5010219;28;20373;-85
2021/10/14 10:45:29;;;;;;;9.82;6.57;;;;;;;11.42;nan;101565.25;5010554;28;20041;-85
2021/10/14 10:47:56;;;;;;;9.30;6.60;;;;;;;11.38;nan;101556.72;5015382;28;20033;-85
2021/10/14 10:50:29;;;;;;;10.45;6.70;;;;;;;11.46;nan;101556.91;5009399;28;20034;-84
2021/10/14 10:53:06;;;;;;;8.48;6.50;;;;;;;11.51;nan;101551.19;5009692;28;20172;-83
2021/10/14 10:55:31;;;;;;;9.27;6.53;;;;;;;11.43;nan;101549.19;5009018;28;20088;-83
2021/10/14 10:57:56;;;;;;;9.50;6.00;;;;;;;11.52;nan;101547.56;5009912;28;20042;-84
2021/10/14 11:00:23;;;;;;;8.38;5.97;;;;;;;11.62;nan;101553.75;5006591;28;20297;-84
2021/10/14 11:03:07;;;;;;;8.63;6.45;;;;;;;11.64;nan;101543.03;5006763;28;20076;-84
2021/10/14 11:05:43;;;;;;;9.85;5.93;;;;;;;11.73;nan;101541.38;5009309;28;20056;-84
2021/10/14 11:08:10;;;;;;;9.55;5.88;;;;;;;11.75;nan;101542.94;5008345;28;20072;-84
2021/10/14 11:10:36;;;;;;;8.57;5.72;;;;;;;11.80;nan;101540.72;5002331;28;20084;-84
2021/10/14 11:13:02;;;;;;;10.13;5.95;;;;;;;11.66;nan;101533.97;4997997;28;20435;-83
2021/10/14 11:15:27;;;;;;;8.50;6.03;;;;;;;11.75;nan;101534.13;5034649;28;20034;-84
2021/10/14 11:18:04;;;;;;;8.63;6.35;;;;;;;11.75;nan;101526.16;5019123;28;20450;-84
2021/10/14 11:20:31;;;;;;;9.30;6.32;;;;;;;11.77;nan;101534.84;5008990;28;20057;-84
2021/10/14 11:23:04;;;;;;;11.35;6.30;;;;;;;11.94;nan;101526.28;5010412;28;20036;-83
2021/10/14 11:25:30;;;;;;;8.25;5.70;;;;;;;12.00;nan;101531.03;5011186;28;20042;-83
2021/10/14 11:28:02;;;;;;;7.03;5.38;;;;;;;12.05;nan;101522.66;5008596;28;20045;-85
2021/10/14 11:30:42;;;;;;;8.73;5.75;;;;;;;12.16;nan;101521.72;5010542;28;20034;-85
2021/10/14 11:33:26;;;;;;;8.77;5.80;;;;;;;12.14;nan;101521.00;5014667;28;20063;-84
2021/10/14 11:36:03;;;;;;;9.52;5.75;;;;;;;12.22;nan;101521.97;5010783;28;20030;-84
2021/10/14 11:38:29;;;;;;;10.25;5.85;;;;;;;12.18;nan;101506.47;5002132;28;20034;-83
2021/10/14 11:40:56;;;;;;;9.70;6.25;;;;;;;12.31;nan;101515.00;5012557;28;20113;-84
2021/10/14 11:43:29;;;;;;;7.45;5.53;;;;;;;12.35;nan;101508.47;5030200;28;20028;-84
2021/10/14 11:45:56;;;;;;;8.90;5.25;;;;;;;12.49;nan;101499.25;5010320;28;20037;-83
2021/10/14 11:48:29;;;;;;;8.13;5.82;;;;;;;12.74;nan;101497.81;5019221;28;20043;-84
2021/10/14 11:51:08;;;;;;;11.05;5.90;;;;;;;12.78;nan;101490.44;5042742;28;20525;-83
2021/10/14 11:53:35;;;;;;;9.60;5.35;;;;;;;12.62;nan;101475.91;5030131;28;20041;-84
2021/10/14 11:56:05;;;;;;;7.85;5.57;;;;;;;12.72;nan;101482.03;5011046;28;20033;-84
2021/10/14 11:58:34;;;;;;;6.70;5.53;;;;;;;12.73;nan;101474.94;5029814;28;20048;-84
2021/10/14 12:01:08;;;;;;;7.28;5.32;;;;;;;12.79;nan;101465.53;5010733;28;20419;-85
2021/10/14 12:03:36;;;;;;;7.95;5.65;;;;;;;12.78;nan;101470.03;5031461;28;20048;-83
2021/10/14 12:06:03;;;;;;;9.43;5.47;;;;;;;12.76;nan;101461.38;5030170;28;20041;-84
2021/10/14 12:08:29;;;;;;;8.93;6.05;;;;;;;12.74;nan;101468.63;5031853;28;20048;-84
2021/10/14 12:10:54;;;;;;;9.15;5.30;;;;;;;12.77;nan;101455.06;5013316;28;20052;-83
2021/10/14 12:13:28;;;;;;;7.47;5.30;;;;;;;12.88;nan;101462.03;5015713;28;20085;-83
2021/10/14 12:16:11;;;;;;;7.93;4.90;;;;;;;12.84;nan;101456.16;5011089;28;20041;-83
2021/10/14 12:18:37;;;;;;;6.80;4.90;;;;;;;13.10;nan;101455.53;5015772;28;20028;-85
2021/10/14 12:21:23;;;;;;;6.43;3.97;;;;;;;13.14;nan;101448.97;5030711;28;20483;-84
2021/10/14 12:24:08;;;;;;;7.95;4.93;;;;;;;13.37;nan;101452.94;5022012;28;20391;-82
2021/10/14 12:26:40;;;;;;;8.63;4.80;;;;;;;13.35;nan;101454.06;5029894;28;20506;-85
2021/10/14 12:29:27;;;;;;;9.23;5.35;;;;;;;13.41;nan;101444.66;5030074;28;20034;-84
2021/10/14 12:32:09;;;;;;;10.18;5.00;;;;;;;13.26;nan;101442.47;5030143;28;20040;-84
2021/10/14 12:34:42;;;;;;;9.63;5.47;;;;;;;13.34;nan;101444.41;5004113;28;20061;-83
2021/10/14 12:37:08;;;;;;;6.63;4.22;;;;;;;13.46;nan;101453.03;5012770;28;20029;-84
2021/10/14 12:39:33;;;;;;;6.88;4.68;;;;;;;13.58;nan;101444.69;5021574;28;20048;-84
2021/10/14 12:41:59;;;;;;;6.82;4.35;;;;;;;13.55;nan;101446.84;5028238;28;20037;-83
2021/10/14 12:44:47;;;;;;;7.03;4.60;;;;;;;13.53;nan;101433.69;5007741;28;20030;-84
2021/10/14 12:47:46;;;;;;;7.85;4.95;;;;;;;13.65;nan;101436.97;5027486;28;20499;-85
2021/10/14 12:50:20;;;;;;;7.35;4.75;;;;;;;13.69;nan;101435.69;5029408;28;20511;-85
2021/10/14 12:53:15;;;;;;;8.82;4.82;;;;;;;13.71;nan;101427.59;5013482;28;20503;-85
2021/10/14 12:55:54;;;;;;;9.23;5.05;;;;;;;13.83;nan;101421.06;5012172;28;20506;-85
2021/10/14 12:58:20;;;;;;;8.98;4.93;;;;;;;13.73;nan;101415.81;5014075;28;20501;-83
2021/10/14 13:01:00;;;;;;;6.07;4.80;;;;;;;13.79;nan;101415.19;5033484;28;20121;-85
2021/10/14 13:03:25;;;;;;;6.43;4.40;;;;;;;13.90;nan;101419.47;5030249;28;20041;-83
2021/10/14 13:05:51;;;;;;;8.30;4.78;;;;;;;13.90;nan;101426.59;5014667;28;20046;-83
2021/10/14 13:08:16;;;;;;;8.60;5.00;;;;;;;13.94;nan;101425.28;5032846;28;20042;-84
2021/10/14 13:10:41;;;;;;;7.82;5.40;;;;;;;13.95;nan;101411.88;5032811;28;20037;-84
2021/10/14 13:13:07;;;;;;;8.27;5.13;;;;;;;13.86;nan;101412.75;5015282;28;20033;-84
2021/10/14 13:15:32;;;;;;;6.82;4.88;;;;;;;13.86;nan;101417.25;5033396;28;20103;-84
2021/10/14 13:17:57;;;;;;;8.15;4.72;;;;;;;13.95;nan;101414.53;5012026;28;20365;-84